createdAt,value
2023-04-25T00:00:23.869Z,0.00
2023-04-25T00:01:23.916Z,0.00
2023-04-25T00:02:24.003Z,0.00
2023-04-25T00:03:24.128Z,0.00
2023-04-25T00:04:24.188Z,0.00
2023-04-25T00:05:24.318Z,0.00
2023-04-25T00:06:24.031Z,0.00
2023-04-25T00:07:24.041Z,0.00
2023-04-25T00:08:24.064Z,0.00
2023-04-25T00:09:24.126Z,0.00
2023-04-25T00:10:24.119Z,0.00
2023-04-25T00:11:24.167Z,0.00
2023-04-25T00:12:24.173Z,0.00
2023-04-25T00:13:24.196Z,0.00
2023-04-25T00:14:24.224Z,0.00
2023-04-25T00:15:24.239Z,0.00
2023-04-25T00:16:24.291Z,0.00
2023-04-25T00:17:24.315Z,0.00
2023-04-25T00:18:24.314Z,0.00
2023-04-25T00:19:24.345Z,0.00
2023-04-25T00:20:24.410Z,0.00
2023-04-25T00:21:24.409Z,0.00
2023-04-25T00:22:24.563Z,0.00
2023-04-25T00:23:24.435Z,0.00
2023-04-25T00:24:24.463Z,0.00
2023-04-25T00:25:24.521Z,0.00
2023-04-25T00:26:24.514Z,0.00
2023-04-25T00:27:24.545Z,0.00
2023-04-25T00:28:24.568Z,0.00
2023-04-25T00:29:24.587Z,0.00
2023-04-25T00:30:24.620Z,0.00
2023-04-25T00:31:24.692Z,0.00
2023-04-25T00:32:24.705Z,0.00
2023-04-25T00:33:24.691Z,0.00
2023-04-25T00:34:24.711Z,0.00
2023-04-25T00:35:24.738Z,0.00
2023-04-25T00:36:24.757Z,0.00
2023-04-25T00:37:24.803Z,0.00
2023-04-25T00:38:24.811Z,0.00
2023-04-25T00:39:24.844Z,0.00
2023-04-25T00:40:24.860Z,0.00
2023-04-25T00:41:24.882Z,0.00
2023-04-25T00:42:24.909Z,0.00
2023-04-25T00:43:24.936Z,0.00
2023-04-25T00:44:24.963Z,0.00
2023-04-25T00:45:24.989Z,0.00
2023-04-25T00:46:25.031Z,0.00
2023-04-25T00:47:25.061Z,0.00
2023-04-25T00:48:25.067Z,0.00
2023-04-25T00:49:25.080Z,0.00
2023-04-25T00:50:25.104Z,0.00
2023-04-25T00:51:25.126Z,0.00
2023-04-25T00:52:25.154Z,0.00
2023-04-25T00:53:25.198Z,0.00
2023-04-25T00:54:25.203Z,0.00
2023-04-25T00:55:25.226Z,0.00
2023-04-25T00:56:25.251Z,0.00
2023-04-25T00:57:25.279Z,0.00
2023-04-25T00:58:25.303Z,0.00
2023-04-25T00:59:25.324Z,0.00
2023-04-25T01:00:25.350Z,0.00
2023-04-25T01:01:25.398Z,0.00
2023-04-25T01:02:25.483Z,0.00
2023-04-25T01:03:25.625Z,0.00
2023-04-25T01:04:25.557Z,0.00
2023-04-25T01:05:25.471Z,0.00
2023-04-25T01:06:25.498Z,0.00
2023-04-25T01:07:25.525Z,0.00
2023-04-25T01:08:25.557Z,0.00
2023-04-25T01:09:25.589Z,0.00
2023-04-25T01:10:25.609Z,0.00
2023-04-25T01:11:25.633Z,0.00
2023-04-25T01:12:25.649Z,0.00
2023-04-25T01:13:25.668Z,0.00
2023-04-25T01:14:25.698Z,0.00
2023-04-25T01:15:25.714Z,0.00
2023-04-25T01:16:25.777Z,0.00
2023-04-25T01:17:25.797Z,0.00
2023-04-25T01:18:25.797Z,0.00
2023-04-25T01:19:25.815Z,0.00
2023-04-25T01:20:25.846Z,0.00
2023-04-25T01:21:25.865Z,0.00
2023-04-25T01:22:25.896Z,0.00
2023-04-25T01:23:25.914Z,0.00
2023-04-25T01:24:26.546Z,0.00
2023-04-25T01:25:25.979Z,0.00
2023-04-25T01:26:25.987Z,0.00
2023-04-25T01:27:26.009Z,0.00
2023-04-25T01:28:26.031Z,0.00
2023-04-25T01:29:26.074Z,0.00
2023-04-25T01:30:26.083Z,0.00
2023-04-25T01:31:26.126Z,0.00
2023-04-25T01:32:26.195Z,0.00
2023-04-25T01:33:26.161Z,0.00
2023-04-25T01:34:26.196Z,0.00
2023-04-25T01:35:26.250Z,0.00
2023-04-25T01:36:26.271Z,0.00
2023-04-25T01:37:26.255Z,0.00
2023-04-25T01:38:26.278Z,0.00
2023-04-25T01:39:26.300Z,0.00
2023-04-25T01:40:26.343Z,0.00
2023-04-25T01:41:26.364Z,0.00
2023-04-25T01:42:26.374Z,0.00
2023-04-25T01:43:26.398Z,0.00
2023-04-25T01:44:26.425Z,0.00
2023-04-25T01:45:26.448Z,0.00
2023-04-25T01:46:26.512Z,0.00
2023-04-25T01:47:26.544Z,0.00
2023-04-25T01:48:26.520Z,0.00
2023-04-25T01:49:26.551Z,0.00
2023-04-25T01:50:26.570Z,0.00
2023-04-25T01:51:26.594Z,0.00
2023-04-25T01:52:26.621Z,0.00
2023-04-25T01:53:26.644Z,0.00
2023-04-25T01:54:26.670Z,0.00
2023-04-25T01:55:26.694Z,0.00
2023-04-25T01:56:26.719Z,0.00
2023-04-25T01:57:26.788Z,0.00
2023-04-25T01:58:26.765Z,0.00
2023-04-25T01:59:26.799Z,0.00
2023-04-25T02:00:26.819Z,0.00
2023-04-25T02:01:26.901Z,0.00
2023-04-25T02:02:27.101Z,0.00
2023-04-25T02:03:27.115Z,0.00
2023-04-25T02:04:27.028Z,0.00
2023-04-25T02:05:26.939Z,0.00
2023-04-25T02:06:26.963Z,0.00
2023-04-25T02:07:26.987Z,0.00
2023-04-25T02:08:27.010Z,0.00
2023-04-25T02:09:27.031Z,0.00
2023-04-25T02:10:27.060Z,0.00
2023-04-25T02:11:27.082Z,0.00
2023-04-25T02:12:27.108Z,0.00
2023-04-25T02:13:27.154Z,0.00
2023-04-25T02:14:27.167Z,0.00
2023-04-25T02:15:27.182Z,0.00
2023-04-25T02:16:27.277Z,0.00
2023-04-25T02:17:27.233Z,0.00
2023-04-25T02:18:27.295Z,0.00
2023-04-25T02:19:27.281Z,0.00
2023-04-25T02:20:27.306Z,0.00
2023-04-25T02:21:27.329Z,0.00
2023-04-25T02:22:27.350Z,0.00
2023-04-25T02:23:27.376Z,0.00
2023-04-25T02:24:27.402Z,0.00
2023-04-25T02:25:27.431Z,0.00
2023-04-25T02:26:27.449Z,0.00
2023-04-25T02:27:27.480Z,0.00
2023-04-25T02:28:27.513Z,0.00
2023-04-25T02:29:27.572Z,0.00
2023-04-25T02:30:27.572Z,0.00
2023-04-25T02:31:27.608Z,0.00
2023-04-25T02:32:27.627Z,0.00
2023-04-25T02:33:27.627Z,0.00
2023-04-25T02:34:27.643Z,0.00
2023-04-25T02:35:27.673Z,0.00
2023-04-25T02:36:27.690Z,0.00
2023-04-25T02:37:27.716Z,0.00
2023-04-25T02:38:27.748Z,0.00
2023-04-25T02:39:27.765Z,0.00
2023-04-25T02:40:27.805Z,0.00
2023-04-25T02:41:27.816Z,0.00
2023-04-25T02:42:27.853Z,0.00
2023-04-25T02:43:27.866Z,0.00
2023-04-25T02:44:27.893Z,0.00
2023-04-25T02:45:27.956Z,0.00
2023-04-25T02:46:38.463Z,0.00
2023-04-25T02:47:28.127Z,0.00
2023-04-25T02:48:27.982Z,0.00
2023-04-25T02:49:28.008Z,0.00
2023-04-25T02:50:28.027Z,0.00
2023-04-25T02:51:28.062Z,0.00
2023-04-25T02:52:28.080Z,0.00
2023-04-25T02:53:28.110Z,0.00
2023-04-25T02:54:28.129Z,0.00
2023-04-25T02:55:28.553Z,0.00
2023-04-25T02:56:28.178Z,0.00
2023-04-25T02:57:28.202Z,0.00
2023-04-25T02:58:28.235Z,0.00
2023-04-25T02:59:28.251Z,0.00
2023-04-25T03:00:28.335Z,0.00
2023-04-25T03:01:28.354Z,0.00
2023-04-25T03:02:28.444Z,0.00
2023-04-25T03:03:28.503Z,0.00
2023-04-25T03:04:28.414Z,0.00
2023-04-25T03:05:28.417Z,0.00
2023-04-25T03:06:28.425Z,0.00
2023-04-25T03:07:28.444Z,0.00
2023-04-25T03:08:28.467Z,0.00
2023-04-25T03:09:28.502Z,0.00
2023-04-25T03:10:28.515Z,0.00
2023-04-25T03:11:28.548Z,0.00
2023-04-25T03:12:28.578Z,0.00
2023-04-25T03:13:28.597Z,0.00
2023-04-25T03:14:28.612Z,0.00
2023-04-25T03:15:28.650Z,0.00
2023-04-25T03:16:28.705Z,0.00
2023-04-25T03:17:28.741Z,0.00
2023-04-25T03:18:28.730Z,0.00
2023-04-25T03:19:28.746Z,0.00
2023-04-25T03:20:28.762Z,0.00
2023-04-25T03:21:28.792Z,0.00
2023-04-25T03:22:28.817Z,0.00
2023-04-25T03:23:28.839Z,0.00
2023-04-25T03:24:28.861Z,0.00
2023-04-25T03:25:28.899Z,0.00
2023-04-25T03:26:28.909Z,0.00
2023-04-25T03:27:28.932Z,0.00
2023-04-25T03:28:28.967Z,0.00
2023-04-25T03:29:28.999Z,0.00
2023-04-25T03:30:29.009Z,0.00
2023-04-25T03:31:29.054Z,0.00
2023-04-25T03:32:29.082Z,0.00
2023-04-25T03:33:29.106Z,0.00
2023-04-25T03:34:29.107Z,0.00
2023-04-25T03:35:29.132Z,0.00
2023-04-25T03:36:29.161Z,0.00
2023-04-25T03:37:29.182Z,0.00
2023-04-25T03:38:29.214Z,0.00
2023-04-25T03:39:29.232Z,0.00
2023-04-25T03:40:29.267Z,0.00
2023-04-25T03:41:29.284Z,0.00
2023-04-25T03:42:29.309Z,0.00
2023-04-25T03:43:29.344Z,0.00
2023-04-25T03:44:29.353Z,0.00
2023-04-25T03:45:29.383Z,0.00
2023-04-25T03:46:29.450Z,0.00
2023-04-25T03:47:29.482Z,4.00
2023-04-25T03:48:29.468Z,4.00
2023-04-25T03:49:29.499Z,0.00
2023-04-25T03:50:29.502Z,4.00
2023-04-25T03:51:29.539Z,4.00
2023-04-25T03:52:29.553Z,4.00
2023-04-25T03:53:29.579Z,4.00
2023-04-25T03:54:29.603Z,4.00
2023-04-25T03:55:29.625Z,4.00
2023-04-25T03:56:29.652Z,4.00
2023-04-25T03:57:29.679Z,8.00
2023-04-25T03:58:29.710Z,8.00
2023-04-25T03:59:29.736Z,12.00
2023-04-25T04:00:29.752Z,12.00
2023-04-25T04:01:29.774Z,16.00
2023-04-25T04:02:29.899Z,16.00
2023-04-25T04:03:30.126Z,20.00
2023-04-25T04:04:30.153Z,20.00
2023-04-25T04:05:30.020Z,20.00
2023-04-25T04:06:29.895Z,24.00
2023-04-25T04:07:29.926Z,24.00
2023-04-25T04:08:29.946Z,28.00
2023-04-25T04:09:29.972Z,32.00
2023-04-25T04:10:29.995Z,36.00
2023-04-25T04:11:30.032Z,40.00
2023-04-25T04:12:30.045Z,44.00
2023-04-25T04:13:30.088Z,44.00
2023-04-25T04:14:30.094Z,52.00
2023-04-25T04:15:30.122Z,56.00
2023-04-25T04:16:30.980Z,64.00
2023-04-25T04:17:30.200Z,68.00
2023-04-25T04:18:30.202Z,80.00
2023-04-25T04:19:30.231Z,84.00
2023-04-25T04:20:30.243Z,96.00
2023-04-25T04:21:30.288Z,104.00
2023-04-25T04:22:30.323Z,112.00
2023-04-25T04:23:30.317Z,120.00
2023-04-25T04:24:30.341Z,128.00
2023-04-25T04:25:30.371Z,140.00
2023-04-25T04:26:30.392Z,164.00
2023-04-25T04:27:30.419Z,196.00
2023-04-25T04:28:30.445Z,236.00
2023-04-25T04:29:30.478Z,268.00
2023-04-25T04:30:30.574Z,304.00
2023-04-25T04:31:30.572Z,336.00
2023-04-25T04:32:30.562Z,368.00
2023-04-25T04:33:30.571Z,384.00
2023-04-25T04:34:30.590Z,392.00
2023-04-25T04:35:30.620Z,404.00
2023-04-25T04:36:30.653Z,416.00
2023-04-25T04:37:30.687Z,432.00
2023-04-25T04:38:30.685Z,436.00
2023-04-25T04:39:30.748Z,448.00
2023-04-25T04:40:30.738Z,416.00
2023-04-25T04:41:30.769Z,380.00
2023-04-25T04:42:30.788Z,376.00
2023-04-25T04:43:30.816Z,396.00
2023-04-25T04:44:30.837Z,448.00
2023-04-25T04:45:30.866Z,488.00
2023-04-25T04:46:30.955Z,500.00
2023-04-25T04:47:30.942Z,548.00
2023-04-25T04:48:30.936Z,596.00
2023-04-25T04:49:30.971Z,652.00
2023-04-25T04:50:30.986Z,760.00
2023-04-25T04:51:31.010Z,844.00
2023-04-25T04:52:31.038Z,880.00
2023-04-25T04:53:31.088Z,924.00
2023-04-25T04:54:31.088Z,964.00
2023-04-25T04:55:31.131Z,992.00
2023-04-25T04:56:31.150Z,1016.00
2023-04-25T04:57:31.160Z,1072.00
2023-04-25T04:58:31.185Z,1084.00
2023-04-25T04:59:31.211Z,1116.00
2023-04-25T05:00:31.255Z,1168.00
2023-04-25T05:01:31.303Z,1184.00
2023-04-25T05:02:31.379Z,1192.00
2023-04-25T05:03:31.453Z,1312.00
2023-04-25T05:04:31.489Z,1456.00
2023-04-25T05:05:31.367Z,1532.00
2023-04-25T05:06:31.394Z,1592.00
2023-04-25T05:07:31.410Z,1596.00
2023-04-25T05:08:31.435Z,1616.00
2023-04-25T05:09:31.489Z,1596.00
2023-04-25T05:10:31.487Z,1576.00
2023-04-25T05:11:31.517Z,1576.00
2023-04-25T05:12:31.541Z,1680.00
2023-04-25T05:13:31.565Z,1716.00
2023-04-25T05:14:31.583Z,1600.00
2023-04-25T05:15:31.610Z,1472.00
2023-04-25T05:16:31.630Z,1364.00
2023-04-25T05:17:31.708Z,1224.00
2023-04-25T05:18:31.683Z,1080.00
2023-04-25T05:19:31.715Z,1076.00
2023-04-25T05:20:31.733Z,1180.00
2023-04-25T05:21:31.773Z,1252.00
2023-04-25T05:22:31.782Z,1308.00
2023-04-25T05:23:33.254Z,1356.00
2023-04-25T05:24:31.833Z,1500.00
2023-04-25T05:25:31.890Z,1756.00
2023-04-25T05:26:31.895Z,1944.00
2023-04-25T05:27:31.909Z,1988.00
2023-04-25T05:28:31.934Z,2260.00
2023-04-25T05:29:31.960Z,3032.00
2023-04-25T05:30:31.980Z,4024.00
2023-04-25T05:31:32.053Z,4664.00
2023-04-25T05:32:32.091Z,5216.00
2023-04-25T05:33:32.061Z,5544.00
2023-04-25T05:34:32.088Z,5956.00
2023-04-25T05:35:32.135Z,7344.00
2023-04-25T05:36:32.148Z,8176.00
2023-04-25T05:37:32.165Z,7784.00
2023-04-25T05:38:34.085Z,7024.00
2023-04-25T05:39:32.262Z,6392.00
2023-04-25T05:40:32.231Z,5596.00
2023-04-25T05:41:32.279Z,5560.00
2023-04-25T05:42:32.281Z,5020.00
2023-04-25T05:43:32.313Z,4844.00
2023-04-25T05:44:32.330Z,5040.00
2023-04-25T05:45:32.359Z,5604.00
2023-04-25T05:46:32.488Z,5392.00
2023-04-25T05:47:32.443Z,4972.00
2023-04-25T05:48:32.440Z,4880.00
2023-04-25T05:49:32.463Z,5048.00
2023-04-25T05:50:32.482Z,5380.00
2023-04-25T05:51:32.531Z,5284.00
2023-04-25T05:52:32.537Z,5196.00
2023-04-25T05:53:32.572Z,5456.00
2023-04-25T05:54:32.581Z,5256.00
2023-04-25T05:55:32.615Z,5672.00
2023-04-25T05:56:32.635Z,6652.00
2023-04-25T05:57:32.683Z,7444.00
2023-04-25T05:58:32.683Z,5832.00
2023-04-25T05:59:32.715Z,7068.00
2023-04-25T06:00:32.740Z,7640.00
2023-04-25T06:01:32.777Z,7728.00
2023-04-25T06:02:32.904Z,7320.00
2023-04-25T06:03:32.931Z,6916.00
2023-04-25T06:04:33.200Z,8660.00
2023-04-25T06:05:33.079Z,9052.00
2023-04-25T06:06:32.898Z,9568.00
2023-04-25T06:07:32.916Z,10292.00
2023-04-25T06:08:32.940Z,9348.00
2023-04-25T06:09:32.970Z,9508.00
2023-04-25T06:10:32.993Z,9076.00
2023-04-25T06:11:33.020Z,16372.00
2023-04-25T06:12:33.042Z,10972.00
2023-04-25T06:13:33.092Z,11212.00
2023-04-25T06:14:33.105Z,41536.00
2023-04-25T06:15:33.127Z,44288.00
2023-04-25T06:16:33.369Z,49312.00
2023-04-25T06:17:33.184Z,50816.00
2023-04-25T06:18:33.199Z,50912.00
2023-04-25T06:19:33.227Z,51040.00
2023-04-25T06:20:33.256Z,28608.00
2023-04-25T06:21:33.281Z,45952.00
2023-04-25T06:22:33.308Z,44448.00
2023-04-25T06:23:33.337Z,52960.00
2023-04-25T06:24:33.359Z,56576.00
2023-04-25T06:25:33.389Z,58080.00
2023-04-25T06:26:33.413Z,45952.00
2023-04-25T06:27:33.447Z,62976.00
2023-04-25T06:28:33.487Z,63584.00
2023-04-25T06:29:33.524Z,57824.00
2023-04-25T06:30:33.536Z,63744.00
2023-04-25T06:31:33.631Z,23552.00
2023-04-25T06:32:33.644Z,15420.00
2023-04-25T06:33:33.623Z,14624.00
2023-04-25T06:34:33.646Z,25760.00
2023-04-25T06:35:33.673Z,15652.00
2023-04-25T06:36:33.711Z,14368.00
2023-04-25T06:37:33.733Z,13316.00
2023-04-25T06:38:33.769Z,13084.00
2023-04-25T06:39:33.790Z,12528.00
2023-04-25T06:40:33.822Z,11244.00
2023-04-25T06:41:33.854Z,11212.00
2023-04-25T06:42:33.882Z,9912.00
2023-04-25T06:43:33.965Z,11020.00
2023-04-25T06:44:33.949Z,12336.00
2023-04-25T06:45:33.991Z,12688.00
2023-04-25T06:46:34.061Z,13172.00
2023-04-25T06:47:34.063Z,14412.00
2023-04-25T06:48:34.053Z,10704.00
2023-04-25T06:49:34.090Z,8972.00
2023-04-25T06:50:34.110Z,8680.00
2023-04-25T06:51:34.139Z,10032.00
2023-04-25T06:52:34.163Z,10224.00
2023-04-25T06:53:34.194Z,13196.00
2023-04-25T06:54:34.220Z,82496.00
2023-04-25T06:55:34.249Z,17824.00
2023-04-25T06:56:34.283Z,71520.00
2023-04-25T06:57:34.303Z,82528.00
2023-04-25T06:58:34.335Z,48704.00
2023-04-25T06:59:34.365Z,62016.00
2023-04-25T07:00:34.418Z,83872.00
2023-04-25T07:01:34.439Z,81792.00
2023-04-25T07:02:34.543Z,85024.00
2023-04-25T07:03:34.665Z,47936.00
2023-04-25T07:04:34.721Z,78400.00
2023-04-25T07:05:34.540Z,21856.00
2023-04-25T07:06:34.579Z,23072.00
2023-04-25T07:07:34.603Z,16324.00
2023-04-25T07:08:34.636Z,13052.00
2023-04-25T07:09:34.688Z,15388.00
2023-04-25T07:10:34.704Z,12956.00
2023-04-25T07:11:34.721Z,10876.00
2023-04-25T07:12:34.756Z,10300.00
2023-04-25T07:13:34.780Z,10304.00
2023-04-25T07:14:34.820Z,10868.00
2023-04-25T07:15:34.840Z,11172.00
2023-04-25T07:16:34.920Z,11128.00
2023-04-25T07:17:35.004Z,15064.00
2023-04-25T07:18:34.936Z,12312.00
2023-04-25T07:19:34.958Z,17248.00
2023-04-25T07:20:34.992Z,67520.00
2023-04-25T07:21:35.028Z,15656.00
2023-04-25T07:22:35.064Z,17856.00
2023-04-25T07:23:35.110Z,17728.00
2023-04-25T07:24:35.175Z,57280.00
2023-04-25T07:25:35.193Z,31200.00
2023-04-25T07:26:35.203Z,18528.00
2023-04-25T07:27:35.203Z,24384.00
2023-04-25T07:28:35.226Z,19328.00
2023-04-25T07:29:35.256Z,16108.00
2023-04-25T07:30:35.286Z,9864.00
2023-04-25T07:31:35.337Z,8348.00
2023-04-25T07:32:35.378Z,7752.00
2023-04-25T07:33:35.393Z,7272.00
2023-04-25T07:34:35.404Z,7348.00
2023-04-25T07:35:35.431Z,7564.00
2023-04-25T07:36:35.460Z,8000.00
2023-04-25T07:37:35.489Z,8968.00
2023-04-25T07:38:38.345Z,10052.00
2023-04-25T07:39:35.549Z,10968.00
2023-04-25T07:40:35.574Z,12124.00
2023-04-25T07:41:35.600Z,13060.00
2023-04-25T07:42:35.630Z,14244.00
2023-04-25T07:43:35.663Z,14868.00
2023-04-25T07:44:35.685Z,16528.00
2023-04-25T07:45:35.760Z,19808.00
2023-04-25T07:46:35.808Z,25216.00
2023-04-25T07:47:35.782Z,30144.00
2023-04-25T07:48:35.822Z,29728.00
2023-04-25T07:49:35.843Z,18272.00
2023-04-25T07:51:35.882Z,21920.00
2023-04-25T07:52:35.937Z,21248.00
2023-04-25T07:53:35.942Z,36704.00
2023-04-25T07:54:35.972Z,20064.00
2023-04-25T07:55:36.004Z,18560.00
2023-04-25T07:56:49.206Z,15276.00
2023-04-25T07:58:36.094Z,17152.00
2023-04-25T07:59:36.122Z,18080.00
2023-04-25T08:00:36.184Z,16928.00
2023-04-25T08:01:36.170Z,15516.00
2023-04-25T08:02:36.278Z,12744.00
2023-04-25T08:03:36.399Z,12956.00
2023-04-25T08:04:36.571Z,13256.00
2023-04-25T08:05:36.425Z,15044.00
2023-04-25T08:06:36.501Z,19456.00
2023-04-25T08:07:36.336Z,75072.00
2023-04-25T08:08:36.380Z,37664.00
2023-04-25T08:09:36.413Z,20544.00
2023-04-25T08:10:36.429Z,20032.00
2023-04-25T08:11:36.449Z,18208.00
2023-04-25T08:12:36.478Z,21344.00
2023-04-25T08:13:36.510Z,45024.00
2023-04-25T08:14:36.555Z,34240.00
2023-04-25T08:15:36.635Z,24224.00
2023-04-25T08:16:36.595Z,22080.00
2023-04-25T08:17:36.664Z,18304.00
2023-04-25T08:18:36.659Z,16960.00
2023-04-25T08:19:36.704Z,17056.00
2023-04-25T08:20:37.123Z,18880.00
2023-04-25T08:21:36.769Z,18240.00
2023-04-25T08:22:36.777Z,21120.00
2023-04-25T08:23:36.796Z,21824.00
2023-04-25T08:24:39.185Z,14464.00
2023-04-25T08:25:36.854Z,12220.00
2023-04-25T08:26:36.888Z,12336.00
2023-04-25T08:27:36.914Z,12416.00
2023-04-25T08:28:36.939Z,13368.00
2023-04-25T08:29:36.973Z,11816.00
2023-04-25T08:30:37.009Z,10676.00
2023-04-25T08:31:37.053Z,9264.00
2023-04-25T08:32:37.088Z,7684.00
2023-04-25T08:33:37.090Z,6980.00
2023-04-25T08:34:37.117Z,6904.00
2023-04-25T08:35:37.147Z,7300.00
2023-04-25T08:36:39.607Z,8580.00
2023-04-25T08:37:37.226Z,9980.00
2023-04-25T08:38:37.231Z,11548.00
2023-04-25T08:39:37.264Z,12220.00
2023-04-25T08:40:37.288Z,17024.00
2023-04-25T08:41:37.318Z,11712.00
2023-04-25T08:42:37.347Z,8808.00
2023-04-25T08:43:37.370Z,7592.00
2023-04-25T08:44:37.402Z,6768.00
2023-04-25T08:45:37.429Z,6216.00
2023-04-25T08:46:37.517Z,5980.00
2023-04-25T08:47:37.530Z,5832.00
2023-04-25T08:48:37.509Z,5632.00
2023-04-25T08:49:37.549Z,5296.00
2023-04-25T08:50:37.573Z,4924.00
2023-04-25T08:51:37.587Z,4708.00
2023-04-25T08:52:37.635Z,4484.00
2023-04-25T08:54:39.628Z,3748.00
2023-04-25T08:55:37.701Z,3480.00
2023-04-25T08:56:37.733Z,3324.00
2023-04-25T08:57:37.756Z,3296.00
2023-04-25T08:58:37.781Z,3396.00
2023-04-25T08:59:39.263Z,3596.00
2023-04-25T09:00:37.835Z,3968.00
2023-04-25T09:01:37.964Z,4524.00
2023-04-25T09:02:38.008Z,5388.00
2023-04-25T09:03:37.951Z,6252.00
2023-04-25T09:04:37.948Z,10140.00
2023-04-25T09:05:38.022Z,6248.00
2023-04-25T09:06:38.005Z,5400.00
2023-04-25T09:07:38.039Z,4852.00
2023-04-25T09:08:38.063Z,4496.00
2023-04-25T09:09:38.093Z,4276.00
2023-04-25T09:10:38.139Z,4084.00
2023-04-25T09:11:38.142Z,4044.00
2023-04-25T09:12:38.163Z,4008.00
2023-04-25T09:13:38.194Z,3996.00
2023-04-25T09:14:38.221Z,3992.00
2023-04-25T09:15:38.248Z,3992.00
2023-04-25T09:16:39.654Z,4072.00
2023-04-25T09:17:38.339Z,4344.00
2023-04-25T09:18:38.330Z,4704.00
2023-04-25T09:19:41.099Z,5176.00
2023-04-25T09:20:56.311Z,5704.00
2023-04-25T09:21:38.414Z,6440.00
2023-04-25T09:22:38.436Z,7328.00
2023-04-25T09:23:38.460Z,8372.00
2023-04-25T09:24:38.500Z,9516.00
2023-04-25T09:25:38.513Z,10648.00
2023-04-25T09:26:38.562Z,11504.00
2023-04-25T09:31:46.331Z,12092.00
2023-04-25T09:32:46.323Z,12764.00
2023-04-25T09:33:46.307Z,13640.00
2023-04-25T09:34:46.337Z,14640.00
2023-04-25T09:35:46.369Z,15708.00
2023-04-25T09:36:47.495Z,16320.00
2023-04-25T09:37:46.420Z,16584.00
2023-04-25T09:38:46.452Z,16672.00
2023-04-25T09:40:46.536Z,14528.00
2023-04-25T09:41:46.545Z,12216.00
2023-04-25T09:42:46.554Z,10472.00
2023-04-25T09:43:46.605Z,9668.00
2023-04-25T09:44:46.618Z,9144.00
2023-04-25T09:45:46.723Z,8416.00
2023-04-25T09:46:46.698Z,7760.00
2023-04-25T09:47:46.738Z,7412.00
2023-04-25T09:48:46.723Z,7308.00
2023-04-25T09:49:46.753Z,7052.00
2023-04-25T09:50:46.773Z,6620.00
2023-04-25T09:51:46.802Z,6000.00
2023-04-25T09:52:46.828Z,5440.00
2023-04-25T09:53:46.857Z,4968.00
2023-04-25T09:54:46.885Z,4456.00
2023-04-25T09:55:46.915Z,4016.00
2023-04-25T09:56:46.941Z,3720.00
2023-04-25T09:57:46.993Z,3612.00
2023-04-25T09:58:46.994Z,3796.00
2023-04-25T09:59:47.027Z,4060.00
2023-04-25T10:00:47.054Z,4300.00
2023-04-25T10:01:47.178Z,4544.00
2023-04-25T10:02:47.165Z,4856.00
2023-04-25T10:03:47.257Z,5212.00
2023-04-25T10:04:47.219Z,5644.00
2023-04-25T10:05:47.189Z,6048.00
2023-04-25T10:06:47.216Z,6436.00
2023-04-25T10:07:47.245Z,6900.00
2023-04-25T10:08:47.290Z,7328.00
2023-04-25T10:09:47.386Z,7708.00
2023-04-25T10:10:47.346Z,8056.00
2023-04-25T10:11:47.382Z,8148.00
2023-04-25T10:12:47.437Z,7900.00
2023-04-25T10:13:47.555Z,7448.00
2023-04-25T10:14:47.516Z,6912.00
2023-04-25T10:15:47.583Z,6428.00
2023-04-25T10:16:47.524Z,6044.00
2023-04-25T10:17:47.631Z,5708.00
2023-04-25T10:18:47.541Z,5396.00
2023-04-25T10:19:47.575Z,5248.00
2023-04-25T10:20:47.596Z,5312.00
2023-04-25T10:21:47.624Z,5600.00
2023-04-25T10:22:47.650Z,6004.00
2023-04-25T10:23:47.846Z,6524.00
2023-04-25T10:24:47.703Z,7060.00
2023-04-25T10:26:47.759Z,7952.00
2023-04-25T10:27:47.784Z,8524.00
2023-04-25T10:28:47.816Z,9196.00
2023-04-25T10:29:47.861Z,9900.00
2023-04-25T10:30:47.914Z,10340.00
2023-04-25T10:31:47.923Z,10504.00
2023-04-25T10:32:47.927Z,10564.00
2023-04-25T10:33:47.978Z,10512.00
2023-04-25T10:34:48.127Z,10328.00
2023-04-25T10:35:48.103Z,10116.00
2023-04-25T10:36:48.036Z,9920.00
2023-04-25T10:37:48.057Z,9596.00
2023-04-25T10:38:48.087Z,9416.00
2023-04-25T10:39:48.110Z,10048.00
2023-04-25T10:40:48.143Z,10444.00
2023-04-25T10:41:48.169Z,11248.00
2023-04-25T10:42:48.196Z,12268.00
2023-04-25T10:43:48.227Z,13856.00
2023-04-25T10:44:48.254Z,16192.00
2023-04-25T10:45:48.310Z,14380.00
2023-04-25T10:46:48.355Z,13876.00
2023-04-25T10:47:48.446Z,11384.00
2023-04-25T10:48:48.374Z,9776.00
2023-04-25T10:49:48.392Z,8396.00
2023-04-25T10:50:48.426Z,7108.00
2023-04-25T10:51:55.297Z,6200.00
2023-04-25T10:52:48.472Z,5544.00
2023-04-25T10:53:48.736Z,5012.00
2023-04-25T10:54:48.529Z,4520.00
2023-04-25T10:55:48.578Z,4048.00
2023-04-25T10:56:48.586Z,3632.00
2023-04-25T10:57:48.616Z,3220.00
2023-04-25T10:58:50.353Z,2840.00
2023-04-25T10:59:48.675Z,2552.00
2023-04-25T11:01:49.025Z,2272.00
2023-04-25T11:02:48.976Z,2296.00
2023-04-25T11:03:48.997Z,2392.00
2023-04-25T11:04:48.906Z,2560.00
2023-04-25T11:05:57.917Z,2764.00
2023-04-25T11:06:49.172Z,2988.00
2023-04-25T11:07:59.480Z,3252.00
2023-04-25T11:08:49.297Z,3556.00
2023-04-25T11:09:48.949Z,3872.00
2023-04-25T11:10:50.239Z,4240.00
2023-04-25T11:11:49.005Z,4700.00
2023-04-25T11:12:49.034Z,5284.00
2023-04-25T11:13:49.060Z,6000.00
2023-04-25T11:14:49.092Z,6848.00
2023-04-25T11:15:54.772Z,7756.00
2023-04-25T11:16:49.179Z,8480.00
2023-04-25T11:17:49.357Z,9040.00
2023-04-25T11:18:49.464Z,9512.00
2023-04-25T11:19:49.229Z,9960.00
2023-04-25T11:20:49.254Z,10428.00
2023-04-25T11:21:49.284Z,10792.00
2023-04-25T11:22:50.931Z,11124.00
2023-04-25T11:23:49.393Z,11248.00
2023-04-25T11:24:49.366Z,11128.00
2023-04-25T11:25:49.389Z,11104.00
2023-04-25T11:26:49.419Z,11252.00
2023-04-25T11:27:49.445Z,11400.00
2023-04-25T11:28:49.477Z,11576.00
2023-04-25T11:29:49.517Z,11836.00
2023-04-25T11:30:49.531Z,12008.00
2023-04-25T11:31:49.676Z,11972.00
2023-04-25T11:32:49.605Z,11816.00
2023-04-25T11:33:49.830Z,11564.00
2023-04-25T11:34:49.644Z,11504.00
2023-04-25T11:35:49.666Z,11620.00
2023-04-25T11:36:49.704Z,11656.00
2023-04-25T11:37:49.723Z,10968.00
2023-04-25T11:38:49.752Z,9744.00
2023-04-25T11:39:49.777Z,8656.00
2023-04-25T11:40:52.430Z,8092.00
2023-04-25T11:41:49.832Z,7744.00
2023-04-25T11:42:50.037Z,7352.00
2023-04-25T11:43:49.892Z,6980.00
2023-04-25T11:44:49.919Z,6796.00
2023-04-25T11:45:49.981Z,6924.00
2023-04-25T11:46:49.981Z,7264.00
2023-04-25T11:47:50.188Z,7896.00
2023-04-25T11:48:50.237Z,8696.00
2023-04-25T11:49:50.143Z,9416.00
2023-04-25T11:50:50.082Z,9924.00
2023-04-25T11:51:50.103Z,10264.00
2023-04-25T11:52:50.132Z,10436.00
2023-04-25T11:53:50.162Z,11748.00
2023-04-25T11:54:50.190Z,11596.00
2023-04-25T11:55:51.235Z,9956.00
2023-04-25T11:56:50.250Z,9476.00
2023-04-25T11:57:50.265Z,9028.00
2023-04-25T11:58:50.299Z,8512.00
2023-04-25T11:59:50.329Z,7848.00
2023-04-25T12:00:51.053Z,7220.00
2023-04-25T12:01:50.400Z,6816.00
2023-04-25T12:02:50.503Z,6420.00
2023-04-25T12:03:50.750Z,6868.00
2023-04-25T12:04:51.008Z,6120.00
2023-04-25T12:05:50.793Z,6464.00
2023-04-25T12:06:50.723Z,6012.00
2023-04-25T12:07:50.546Z,5672.00
2023-04-25T12:08:50.809Z,5648.00
2023-04-25T12:09:50.601Z,4272.00
2023-04-25T12:10:50.628Z,4116.00
2023-04-25T12:11:50.689Z,4024.00
2023-04-25T12:12:50.705Z,3948.00
2023-04-25T12:13:50.715Z,4164.00
2023-04-25T12:14:50.749Z,5576.00
2023-04-25T12:15:50.877Z,5872.00
2023-04-25T12:16:50.801Z,6072.00
2023-04-25T12:17:50.865Z,6196.00
2023-04-25T12:18:51.025Z,6440.00
2023-04-25T12:19:50.882Z,6728.00
2023-04-25T12:20:50.919Z,6684.00
2023-04-25T12:21:58.119Z,6532.00
2023-04-25T12:22:50.960Z,6976.00
2023-04-25T12:23:50.985Z,7328.00
2023-04-25T12:24:51.019Z,7800.00
2023-04-25T12:25:51.041Z,8308.00
2023-04-25T12:26:51.071Z,7924.00
2023-04-25T12:27:51.134Z,7120.00
2023-04-25T12:28:51.338Z,7088.00
2023-04-25T12:29:51.152Z,7332.00
2023-04-25T12:30:51.181Z,8016.00
2023-04-25T12:31:51.334Z,8992.00
2023-04-25T12:32:51.287Z,9612.00
2023-04-25T12:33:51.262Z,9908.00
2023-04-25T12:34:51.294Z,9724.00